createdAt,value
2018-03-22T00:00:17.402Z,7.00
2018-03-22T00:01:20.768Z,7.01
2018-03-22T00:02:24.163Z,7.01
2018-03-22T00:03:27.578Z,7.02
2018-03-22T00:04:30.902Z,7.02
2018-03-22T00:05:34.258Z,7.02
2018-03-22T00:06:37.660Z,7.02
2018-03-22T00:07:41.038Z,7.02
2018-03-22T00:08:44.392Z,7.03
2018-03-22T00:09:47.708Z,7.04
2018-03-22T00:10:51.094Z,7.03
2018-03-22T00:11:54.441Z,7.04
2018-03-22T00:12:57.781Z,7.05
2018-03-22T00:14:01.163Z,7.04
2018-03-22T00:15:04.477Z,7.04
2018-03-22T00:16:07.816Z,7.04
2018-03-22T00:17:11.163Z,7.04
2018-03-22T00:18:14.571Z,7.05
2018-03-22T00:19:18.118Z,7.06
2018-03-22T00:20:21.451Z,7.06
2018-03-22T00:21:24.793Z,7.06
2018-03-22T00:22:38.960Z,7.06
2018-03-22T00:23:42.317Z,7.04
2018-03-22T00:24:45.722Z,7.04
2018-03-22T00:25:49.047Z,7.05
2018-03-22T00:26:53.072Z,7.06
2018-03-22T00:27:56.445Z,7.06
2018-03-22T00:28:59.820Z,7.06
2018-03-22T00:30:03.237Z,7.07
2018-03-22T00:31:06.730Z,7.08
2018-03-22T00:32:10.062Z,7.08
2018-03-22T00:33:13.410Z,7.08
2018-03-22T00:34:16.743Z,7.08
2018-03-22T00:35:20.068Z,7.09
2018-03-22T00:36:23.390Z,7.09
2018-03-22T00:37:26.843Z,7.10
2018-03-22T00:38:30.196Z,7.09
2018-03-22T00:39:33.543Z,7.10
2018-03-22T00:40:36.884Z,7.10
2018-03-22T00:41:41.161Z,7.10
2018-03-22T00:42:44.458Z,7.10
2018-03-22T00:43:47.798Z,7.10
2018-03-22T00:44:51.192Z,7.11
2018-03-22T00:45:54.566Z,7.10
2018-03-22T00:46:57.864Z,7.11
2018-03-22T00:48:01.183Z,7.11
2018-03-22T00:49:04.624Z,7.11
2018-03-22T00:50:08.019Z,7.11
2018-03-22T00:51:11.394Z,7.10
2018-03-22T00:52:14.702Z,7.11
2018-03-22T00:53:18.024Z,7.11
2018-03-22T00:54:21.373Z,7.11
2018-03-22T00:55:24.761Z,7.11
2018-03-22T00:56:28.089Z,7.10
2018-03-22T00:57:31.520Z,7.09
2018-03-22T00:58:34.821Z,7.08
2018-03-22T00:59:38.151Z,7.08
2018-03-22T01:00:41.510Z,7.08
2018-03-22T01:01:45.575Z,7.08
2018-03-22T01:02:48.932Z,7.08
2018-03-22T01:03:52.292Z,7.08
2018-03-22T01:04:55.667Z,7.10
2018-03-22T01:05:59.053Z,7.10
2018-03-22T01:07:02.455Z,7.10
2018-03-22T01:08:05.791Z,7.11
2018-03-22T01:09:09.140Z,7.11
2018-03-22T01:10:12.489Z,7.12
2018-03-22T01:11:15.873Z,7.13
2018-03-22T01:12:19.306Z,7.12
2018-03-22T01:13:22.632Z,7.13
2018-03-22T01:14:26.086Z,7.14
2018-03-22T01:15:29.376Z,7.14
2018-03-22T01:16:32.762Z,7.15
2018-03-22T01:17:36.048Z,7.14
2018-03-22T01:18:39.388Z,7.16
2018-03-22T01:19:42.710Z,7.16
2018-03-22T01:20:46.086Z,7.17
2018-03-22T01:21:49.790Z,7.16
2018-03-22T01:22:53.141Z,7.17
2018-03-22T01:23:56.568Z,7.18
2018-03-22T01:24:59.947Z,7.18
2018-03-22T01:26:03.341Z,7.18
2018-03-22T01:27:06.691Z,7.19
2018-03-22T01:28:10.281Z,7.20
2018-03-22T01:29:13.677Z,7.19
2018-03-22T01:30:28.844Z,7.19
2018-03-22T01:31:32.194Z,7.15
2018-03-22T01:32:35.613Z,7.15
2018-03-22T01:33:38.915Z,7.16
2018-03-22T01:34:42.238Z,7.16
2018-03-22T01:35:45.552Z,7.16
2018-03-22T01:36:48.989Z,7.17
2018-03-22T01:37:52.336Z,7.18
2018-03-22T01:38:55.755Z,7.18
2018-03-22T01:39:59.064Z,7.19
2018-03-22T01:41:02.387Z,7.21
2018-03-22T01:42:07.309Z,7.21
2018-03-22T01:43:10.729Z,7.21
2018-03-22T01:44:14.095Z,7.22
2018-03-22T01:45:17.466Z,7.22
2018-03-22T01:46:20.746Z,7.22
2018-03-22T01:47:24.090Z,7.23
2018-03-22T01:48:27.427Z,7.23
2018-03-22T01:49:30.765Z,7.24
2018-03-22T01:50:34.088Z,7.25
2018-03-22T01:51:37.414Z,7.24
2018-03-22T01:52:52.413Z,7.23
2018-03-22T01:53:55.767Z,7.21
2018-03-22T01:54:59.201Z,7.21
2018-03-22T01:56:02.525Z,7.21
2018-03-22T01:57:05.839Z,7.22
2018-03-22T01:58:09.145Z,7.23
2018-03-22T01:59:13.528Z,7.24
2018-03-22T02:00:16.840Z,7.25
2018-03-22T02:01:20.159Z,7.26
2018-03-22T02:02:23.469Z,7.26
2018-03-22T02:03:26.807Z,7.27
2018-03-22T02:04:30.159Z,7.27
2018-03-22T02:05:33.507Z,7.28
2018-03-22T02:06:36.831Z,7.28
2018-03-22T02:07:40.178Z,7.28
2018-03-22T02:08:43.564Z,7.27
2018-03-22T02:09:47.005Z,7.28
2018-03-22T02:10:50.300Z,7.28
2018-03-22T02:11:53.645Z,7.29
2018-03-22T02:12:57.003Z,7.29
2018-03-22T02:14:00.356Z,7.30
2018-03-22T02:15:03.845Z,7.30
2018-03-22T02:16:07.175Z,7.30
2018-03-22T02:17:10.525Z,7.29
2018-03-22T02:18:13.934Z,7.30
2018-03-22T02:19:18.055Z,7.31
2018-03-22T02:20:21.375Z,7.30
2018-03-22T02:21:24.828Z,7.30
2018-03-22T02:22:28.161Z,7.30
2018-03-22T02:23:31.456Z,7.29
2018-03-22T02:24:34.832Z,7.29
2018-03-22T02:25:38.144Z,7.28
2018-03-22T02:26:41.465Z,7.28
2018-03-22T02:27:44.924Z,7.28
2018-03-22T02:28:48.324Z,7.27
2018-03-22T02:29:51.651Z,7.26
2018-03-22T02:30:55.137Z,7.26
2018-03-22T02:31:58.469Z,7.25
2018-03-22T02:33:01.835Z,7.25
2018-03-22T02:34:05.186Z,7.24
2018-03-22T02:35:08.508Z,7.25
2018-03-22T02:36:11.910Z,7.26
2018-03-22T02:37:15.254Z,7.26
2018-03-22T02:38:18.651Z,7.27
2018-03-22T02:39:21.992Z,7.28
2018-03-22T02:40:25.451Z,7.29
2018-03-22T02:41:28.843Z,7.29
2018-03-22T02:42:33.495Z,7.31
2018-03-22T02:43:36.897Z,7.31
2018-03-22T02:44:40.240Z,7.32
2018-03-22T02:45:43.557Z,7.32
2018-03-22T02:46:46.961Z,7.33
2018-03-22T02:47:50.370Z,7.33
2018-03-22T02:48:53.679Z,7.33
2018-03-22T02:49:57.146Z,7.33
2018-03-22T02:51:00.493Z,7.33
2018-03-22T02:52:03.936Z,7.33
2018-03-22T02:53:07.257Z,7.33
2018-03-22T02:54:10.565Z,7.32
2018-03-22T02:55:13.887Z,7.32
2018-03-22T02:56:17.290Z,7.32
2018-03-22T02:57:20.621Z,7.33
2018-03-22T02:58:23.938Z,7.33
2018-03-22T02:59:27.289Z,7.32
2018-03-22T03:00:30.657Z,7.31
2018-03-22T03:01:33.952Z,7.31
2018-03-22T03:02:37.311Z,7.30
2018-03-22T03:03:40.636Z,7.30
2018-03-22T03:04:44.255Z,7.29
2018-03-22T03:05:47.663Z,7.30
2018-03-22T03:06:51.050Z,7.30
2018-03-22T03:07:54.399Z,7.31
2018-03-22T03:08:57.820Z,7.31
2018-03-22T03:10:01.147Z,7.31
2018-03-22T03:11:04.483Z,7.31
2018-03-22T03:12:07.819Z,7.31
2018-03-22T03:13:11.174Z,7.31
2018-03-22T03:14:14.504Z,7.32
2018-03-22T03:15:17.824Z,7.32
2018-03-22T03:16:21.162Z,7.32
2018-03-22T03:17:24.541Z,7.32
2018-03-22T03:18:27.970Z,7.32
2018-03-22T03:19:31.592Z,7.32
2018-03-22T03:20:35.064Z,7.33
2018-03-22T03:21:38.400Z,7.34
2018-03-22T03:22:41.713Z,7.33
2018-03-22T03:23:45.114Z,7.33
2018-03-22T03:24:48.430Z,7.34
2018-03-22T03:25:52.493Z,7.34
2018-03-22T03:26:55.815Z,7.34
2018-03-22T03:27:59.172Z,7.34
2018-03-22T03:29:03.326Z,7.34
2018-03-22T03:30:06.679Z,7.34
2018-03-22T03:31:10.012Z,7.34
2018-03-22T03:32:13.364Z,7.35
2018-03-22T03:33:16.684Z,7.35
2018-03-22T03:34:20.056Z,7.36
2018-03-22T03:35:23.378Z,7.36
2018-03-22T03:36:26.753Z,7.36
2018-03-22T03:37:30.129Z,7.34
2018-03-22T03:38:33.674Z,7.34
2018-03-22T03:39:37.033Z,7.35
2018-03-22T03:40:40.373Z,7.34
2018-03-22T03:41:43.711Z,7.34
2018-03-22T03:42:48.574Z,7.33
2018-03-22T03:43:52.287Z,7.33
2018-03-22T03:44:55.755Z,7.32
2018-03-22T03:45:59.095Z,7.32
2018-03-22T03:47:02.440Z,7.32
2018-03-22T03:48:05.819Z,7.31
2018-03-22T03:49:09.176Z,7.31
2018-03-22T03:50:12.537Z,7.30
2018-03-22T03:51:15.869Z,7.31
2018-03-22T03:52:19.194Z,7.31
2018-03-22T03:53:22.515Z,7.32
2018-03-22T03:54:25.824Z,7.32
2018-03-22T03:55:29.184Z,7.32
2018-03-22T03:56:32.520Z,7.32
2018-03-22T03:57:35.914Z,7.32
2018-03-22T03:58:39.228Z,7.32
2018-03-22T03:59:42.643Z,7.32
2018-03-22T04:00:46.048Z,7.32
2018-03-22T04:01:49.356Z,7.32
2018-03-22T04:02:52.760Z,7.31
2018-03-22T04:03:56.075Z,7.32
2018-03-22T04:04:59.405Z,7.31
2018-03-22T04:06:02.854Z,7.32
2018-03-22T04:07:06.224Z,7.32
2018-03-22T04:08:10.276Z,7.31
2018-03-22T04:09:13.636Z,7.31
2018-03-22T04:10:16.974Z,7.30
2018-03-22T04:11:20.096Z,7.31
2018-03-22T04:12:23.177Z,7.30
2018-03-22T04:13:26.396Z,7.29
2018-03-22T04:14:29.421Z,7.29
2018-03-22T04:15:32.493Z,7.28
2018-03-22T04:16:35.572Z,7.28
2018-03-22T04:17:38.695Z,7.29
2018-03-22T04:18:41.767Z,7.29
2018-03-22T04:19:44.875Z,7.28
2018-03-22T04:20:48.009Z,7.28
2018-03-22T04:21:51.058Z,7.28
2018-03-22T04:22:54.130Z,7.29
2018-03-22T04:23:57.184Z,7.29
2018-03-22T04:25:00.362Z,7.29
2018-03-22T04:26:03.405Z,7.28
2018-03-22T04:27:06.457Z,7.28
2018-03-22T04:28:09.492Z,7.28
2018-03-22T04:29:12.536Z,7.29
2018-03-22T04:30:15.601Z,7.30
2018-03-22T04:31:18.684Z,7.30
2018-03-22T04:32:21.741Z,7.31
2018-03-22T04:33:24.786Z,7.31
2018-03-22T04:34:27.829Z,7.32
2018-03-22T04:35:30.864Z,7.32
2018-03-22T04:36:33.921Z,7.32
2018-03-22T04:37:36.981Z,7.33
2018-03-22T04:38:40.058Z,7.33
2018-03-22T04:39:43.120Z,7.33
2018-03-22T04:40:47.337Z,7.33
2018-03-22T04:41:50.409Z,7.32
2018-03-22T04:42:54.648Z,7.31
2018-03-22T04:43:57.717Z,7.32
2018-03-22T04:45:00.757Z,7.32
2018-03-22T04:46:03.861Z,7.31
2018-03-22T04:47:11.407Z,7.32
2018-03-22T04:48:14.568Z,7.31
2018-03-22T04:49:17.629Z,7.30
2018-03-22T04:50:20.680Z,7.30
2018-03-22T04:51:24.824Z,7.30
2018-03-22T04:52:27.929Z,7.29
2018-03-22T04:53:31.051Z,7.30
2018-03-22T04:54:35.523Z,7.30
2018-03-22T04:55:38.598Z,7.30
2018-03-22T04:56:41.721Z,7.30
2018-03-22T04:57:44.880Z,7.30
2018-03-22T04:58:49.551Z,7.31
2018-03-22T04:59:52.624Z,7.30
2018-03-22T05:00:57.112Z,7.30
2018-03-22T05:02:00.476Z,7.30
2018-03-22T05:03:03.595Z,7.30
2018-03-22T05:04:06.724Z,7.29
2018-03-22T05:05:09.771Z,7.29
2018-03-22T05:06:12.885Z,7.29
2018-03-22T05:07:15.955Z,7.30
2018-03-22T05:08:19.008Z,7.30
2018-03-22T05:09:22.157Z,7.31
2018-03-22T05:10:25.212Z,7.31
2018-03-22T05:11:28.364Z,7.32
2018-03-22T05:12:31.679Z,7.31
2018-03-22T05:13:34.798Z,7.32
2018-03-22T05:14:37.915Z,7.32
2018-03-22T05:15:41.004Z,7.32
2018-03-22T05:16:44.053Z,7.33
2018-03-22T05:17:47.128Z,7.33
2018-03-22T05:18:50.158Z,7.32
2018-03-22T05:19:53.307Z,7.33
2018-03-22T05:20:57.195Z,7.32
2018-03-22T05:22:00.296Z,7.32
2018-03-22T05:23:03.357Z,7.33
2018-03-22T05:24:06.431Z,7.33
2018-03-22T05:25:09.508Z,7.34
2018-03-22T05:26:12.619Z,7.33
2018-03-22T05:27:15.782Z,7.33
2018-03-22T05:28:18.820Z,7.34
2018-03-22T05:29:21.943Z,7.34
2018-03-22T05:30:25.065Z,7.35
2018-03-22T05:31:28.149Z,7.35
2018-03-22T05:32:31.182Z,7.33
2018-03-22T05:33:34.217Z,7.33
2018-03-22T05:34:37.252Z,7.33
2018-03-22T05:35:40.328Z,7.33
2018-03-22T05:36:43.364Z,7.34
2018-03-22T05:37:46.404Z,7.33
2018-03-22T05:38:49.551Z,7.34
2018-03-22T05:39:52.660Z,7.35
2018-03-22T05:40:55.713Z,7.35
2018-03-22T05:41:58.862Z,7.36
2018-03-22T05:43:03.681Z,7.36
2018-03-22T05:44:06.738Z,7.35
2018-03-22T05:45:09.796Z,7.37
2018-03-22T05:46:13.019Z,7.37
2018-03-22T05:47:16.052Z,7.37
2018-03-22T05:48:19.084Z,7.38
2018-03-22T05:49:22.284Z,7.37
2018-03-22T05:50:25.379Z,7.37
2018-03-22T05:51:28.494Z,7.37
2018-03-22T05:52:31.549Z,7.37
2018-03-22T05:53:36.643Z,7.37
2018-03-22T05:54:39.692Z,7.37
2018-03-22T05:55:42.751Z,7.35
2018-03-22T05:56:45.867Z,7.34
2018-03-22T05:57:48.978Z,7.32
2018-03-22T05:58:52.095Z,7.31
2018-03-22T05:59:55.249Z,7.29
2018-03-22T06:00:58.293Z,7.29
2018-03-22T06:02:02.574Z,7.29
2018-03-22T06:03:05.695Z,7.28
2018-03-22T06:04:08.695Z,7.28
2018-03-22T06:05:11.765Z,7.29
2018-03-22T06:06:14.840Z,7.28
2018-03-22T06:07:17.955Z,7.29
2018-03-22T06:08:21.063Z,7.30
2018-03-22T06:09:24.116Z,7.29
2018-03-22T06:10:27.138Z,7.29
2018-03-22T06:11:30.268Z,7.30
2018-03-22T06:12:33.358Z,7.30
2018-03-22T06:13:36.434Z,7.29
2018-03-22T06:14:39.521Z,7.29
2018-03-22T06:15:42.642Z,7.28
2018-03-22T06:16:45.682Z,7.28
2018-03-22T06:17:48.761Z,7.27
2018-03-22T06:18:51.826Z,7.27
2018-03-22T06:19:54.873Z,7.25
2018-03-22T06:20:57.946Z,7.24
2018-03-22T06:22:01.095Z,7.23
2018-03-22T06:23:04.151Z,7.21
2018-03-22T06:24:07.304Z,7.21
2018-03-22T06:25:11.636Z,7.20
2018-03-22T06:26:14.767Z,7.19
2018-03-22T06:27:17.808Z,7.20
2018-03-22T06:28:20.865Z,7.18
2018-03-22T06:29:24.063Z,7.18
2018-03-22T06:30:27.172Z,7.17
2018-03-22T06:31:30.286Z,7.17
2018-03-22T06:32:33.405Z,7.17
2018-03-22T06:33:36.501Z,7.16
2018-03-22T06:34:39.546Z,7.16
2018-03-22T06:35:42.752Z,7.16
2018-03-22T06:36:45.801Z,7.15
2018-03-22T06:37:48.828Z,7.16
2018-03-22T06:38:51.880Z,7.16
2018-03-22T06:39:55.151Z,7.15
2018-03-22T06:40:58.264Z,7.16
2018-03-22T06:42:01.396Z,7.16
2018-03-22T06:43:06.204Z,7.17
2018-03-22T06:44:09.301Z,7.16
2018-03-22T06:45:12.341Z,7.16
2018-03-22T06:46:15.567Z,7.16
2018-03-22T06:47:18.611Z,7.15
2018-03-22T06:48:21.685Z,7.15
2018-03-22T06:49:24.941Z,7.15
2018-03-22T06:50:28.053Z,7.15
2018-03-22T06:51:31.345Z,7.16
2018-03-22T06:52:34.585Z,7.16
2018-03-22T06:53:37.639Z,7.17
2018-03-22T06:54:40.912Z,7.18
2018-03-22T06:55:43.946Z,7.17
2018-03-22T06:56:47.216Z,7.18
2018-03-22T06:57:50.377Z,7.18
2018-03-22T06:58:53.464Z,7.18
2018-03-22T06:59:56.783Z,7.18
2018-03-22T07:00:59.853Z,7.17
2018-03-22T07:02:02.886Z,7.18
2018-03-22T07:03:06.195Z,7.18
2018-03-22T07:04:09.261Z,7.19
2018-03-22T07:05:13.276Z,7.19
2018-03-22T07:06:16.412Z,7.19
2018-03-22T07:07:19.596Z,7.20
2018-03-22T07:08:22.821Z,7.21
2018-03-22T07:09:25.919Z,7.21
2018-03-22T07:10:29.084Z,7.21
2018-03-22T07:11:32.189Z,7.21
2018-03-22T07:12:35.356Z,7.22
2018-03-22T07:13:38.532Z,7.22
2018-03-22T07:14:42.069Z,7.22
2018-03-22T07:15:45.291Z,7.22
2018-03-22T07:16:48.338Z,7.22
2018-03-22T07:17:51.409Z,7.22
2018-03-22T07:18:54.547Z,7.23
2018-03-22T07:19:57.656Z,7.23
2018-03-22T07:21:00.790Z,7.24
2018-03-22T07:22:03.819Z,7.24
2018-03-22T07:23:07.175Z,7.25
2018-03-22T07:24:10.300Z,7.25
2018-03-22T07:25:13.420Z,7.25
2018-03-22T07:26:16.600Z,7.25
2018-03-22T07:27:20.444Z,7.26
2018-03-22T07:28:24.416Z,7.26
2018-03-22T07:29:27.457Z,7.26
2018-03-22T07:30:31.159Z,7.25
2018-03-22T07:31:34.311Z,7.25
2018-03-22T07:32:37.584Z,7.25
2018-03-22T07:33:40.862Z,7.24
2018-03-22T07:34:43.910Z,7.24
2018-03-22T07:35:46.966Z,7.24
2018-03-22T07:36:50.176Z,7.24
2018-03-22T07:37:53.186Z,7.24
2018-03-22T07:38:56.310Z,7.24
2018-03-22T07:39:59.420Z,7.25
2018-03-22T07:41:03.255Z,7.25
2018-03-22T07:42:06.408Z,7.25
2018-03-22T07:43:18.207Z,7.25
2018-03-22T07:44:26.736Z,7.23
2018-03-22T07:45:29.823Z,7.21
2018-03-22T07:46:32.939Z,7.22
2018-03-22T07:47:36.029Z,7.22
2018-03-22T07:48:39.080Z,7.23
2018-03-22T07:49:43.792Z,7.24
2018-03-22T07:50:46.867Z,7.25
2018-03-22T07:51:49.975Z,7.26
2018-03-22T07:52:53.044Z,7.28
2018-03-22T07:53:56.280Z,7.29
2018-03-22T07:54:59.412Z,7.30
2018-03-22T07:56:02.473Z,7.30
2018-03-22T07:57:05.508Z,7.31
2018-03-22T07:58:08.652Z,7.31
2018-03-22T07:59:12.598Z,7.32
2018-03-22T08:00:16.188Z,7.32
2018-03-22T08:01:19.503Z,7.33
2018-03-22T08:02:22.848Z,7.34
2018-03-22T08:03:26.288Z,7.34
2018-03-22T08:04:30.729Z,7.35
2018-03-22T08:05:35.195Z,7.36
2018-03-22T08:06:39.478Z,7.37
2018-03-22T08:07:43.750Z,7.39
2018-03-22T08:08:47.243Z,7.40
2018-03-22T08:09:50.617Z,7.41
2018-03-22T08:10:53.970Z,7.42
2018-03-22T08:11:57.358Z,7.44
2018-03-22T08:13:00.712Z,7.44
2018-03-22T08:14:04.093Z,7.45
2018-03-22T08:15:07.833Z,7.45
2018-03-22T08:16:11.282Z,7.45
2018-03-22T08:17:14.596Z,7.46
2018-03-22T08:18:17.920Z,7.46
2018-03-22T08:19:21.308Z,7.47
2018-03-22T08:20:25.332Z,7.48
2018-03-22T08:21:28.653Z,7.48
2018-03-22T08:22:31.976Z,7.47
2018-03-22T08:23:35.306Z,7.48
2018-03-22T08:24:38.721Z,7.49
2018-03-22T08:25:42.059Z,7.49
2018-03-22T08:26:45.379Z,7.49
2018-03-22T08:27:48.725Z,7.50
2018-03-22T08:28:52.151Z,7.50
2018-03-22T08:29:58.798Z,7.49
2018-03-22T08:31:02.249Z,7.49
2018-03-22T08:32:05.715Z,7.50
2018-03-22T08:33:09.207Z,7.51
2018-03-22T08:34:12.675Z,7.52
2018-03-22T08:35:16.016Z,7.52
2018-03-22T08:36:19.448Z,7.53
2018-03-22T08:37:22.823Z,7.54
2018-03-22T08:38:26.185Z,7.54
2018-03-22T08:39:29.603Z,7.54
2018-03-22T08:40:33.017Z,7.55
2018-03-22T08:41:36.342Z,7.56
2018-03-22T08:42:39.702Z,7.56
2018-03-22T08:43:43.868Z,7.57
2018-03-22T08:44:47.306Z,7.57
2018-03-22T08:45:50.671Z,7.57
2018-03-22T08:46:54.158Z,7.59
2018-03-22T08:47:57.552Z,7.59
2018-03-22T08:49:00.939Z,7.59
2018-03-22T08:50:04.364Z,7.59
2018-03-22T08:51:07.713Z,7.60
2018-03-22T08:52:11.549Z,7.62
2018-03-22T08:53:15.840Z,7.63
2018-03-22T08:54:19.777Z,7.64
2018-03-22T08:55:24.264Z,7.65
2018-03-22T08:56:28.401Z,7.63
2018-03-22T08:57:32.247Z,7.64
2018-03-22T08:58:35.597Z,7.65
2018-03-22T08:59:40.062Z,7.65
2018-03-22T09:00:43.422Z,7.65
2018-03-22T09:01:46.835Z,7.65
2018-03-22T09:02:50.187Z,7.65
2018-03-22T09:03:53.731Z,7.64
2018-03-22T09:04:57.051Z,7.64
2018-03-22T09:06:00.378Z,7.63
2018-03-22T09:07:04.503Z,7.63
2018-03-22T09:08:07.913Z,7.62
2018-03-22T09:09:11.357Z,7.63
2018-03-22T09:10:14.664Z,7.63
2018-03-22T09:11:17.997Z,7.64
2018-03-22T09:12:21.446Z,7.64
2018-03-22T09:13:24.824Z,7.64
2018-03-22T09:14:28.392Z,7.64
2018-03-22T09:15:32.776Z,7.65
2018-03-22T09:16:36.110Z,7.66
2018-03-22T09:17:40.609Z,7.66
2018-03-22T09:18:44.776Z,7.67
2018-03-22T09:19:48.088Z,7.67
2018-03-22T09:20:51.889Z,7.68
2018-03-22T09:21:55.325Z,7.69
2018-03-22T09:22:58.677Z,7.69
2018-03-22T09:24:02.140Z,7.71
2018-03-22T09:25:05.572Z,7.72
2018-03-22T09:26:09.025Z,7.71
2018-03-22T09:27:12.869Z,7.71
2018-03-22T09:28:16.313Z,7.72
2018-03-22T09:29:19.697Z,7.74
2018-03-22T09:30:23.148Z,7.75
2018-03-22T09:31:26.484Z,7.74
2018-03-22T09:32:29.852Z,7.75
2018-03-22T09:33:33.215Z,7.76
2018-03-22T09:34:36.556Z,7.76
2018-03-22T09:35:39.904Z,7.76
2018-03-22T09:36:43.235Z,7.75
2018-03-22T09:37:46.656Z,7.76
2018-03-22T09:38:50.044Z,7.76
2018-03-22T09:39:53.486Z,7.77
2018-03-22T09:40:56.833Z,7.78
2018-03-22T09:42:00.183Z,7.79
2018-03-22T09:43:03.522Z,7.80
2018-03-22T09:44:06.863Z,7.82
2018-03-22T09:45:10.418Z,7.83
2018-03-22T09:46:13.769Z,7.84
2018-03-22T09:47:17.220Z,7.85
2018-03-22T09:48:20.560Z,7.87
2018-03-22T09:49:23.908Z,7.89
2018-03-22T09:50:27.225Z,7.91
2018-03-22T09:51:30.548Z,7.91
2018-03-22T09:52:33.874Z,7.92
2018-03-22T09:53:37.208Z,7.93
2018-03-22T09:54:40.578Z,7.94
2018-03-22T09:55:43.936Z,7.95
2018-03-22T09:56:47.393Z,7.96
2018-03-22T09:57:50.771Z,7.98
2018-03-22T09:58:54.080Z,7.98
2018-03-22T09:59:57.453Z,7.98
2018-03-22T10:01:00.820Z,7.99
2018-03-22T10:02:04.232Z,7.99
2018-03-22T10:03:07.535Z,7.98
2018-03-22T10:04:11.795Z,7.99
2018-03-22T10:05:15.224Z,8.00
2018-03-22T10:06:18.592Z,8.01
2018-03-22T10:07:21.948Z,8.03
2018-03-22T10:08:25.300Z,8.05
2018-03-22T10:09:28.671Z,8.06
2018-03-22T10:10:32.007Z,8.08
2018-03-22T10:11:35.347Z,8.10
2018-03-22T10:12:39.763Z,8.11
2018-03-22T10:13:43.101Z,8.12
2018-03-22T10:14:46.429Z,8.14
2018-03-22T10:15:49.845Z,8.15
2018-03-22T10:16:53.212Z,8.16
2018-03-22T10:17:56.607Z,8.17
2018-03-22T10:18:59.955Z,8.18
2018-03-22T10:20:03.424Z,8.18
2018-03-22T10:21:06.755Z,8.19
2018-03-22T10:22:10.656Z,8.21
2018-03-22T10:23:14.056Z,8.22
2018-03-22T10:24:17.371Z,8.24
2018-03-22T10:25:20.788Z,8.26
2018-03-22T10:26:24.187Z,8.28
2018-03-22T10:27:27.530Z,8.29
2018-03-22T10:28:30.859Z,8.31
2018-03-22T10:29:34.197Z,8.32
2018-03-22T10:30:37.551Z,8.33
2018-03-22T10:31:40.919Z,8.35
2018-03-22T10:32:44.958Z,8.36
2018-03-22T10:33:48.318Z,8.38
2018-03-22T10:34:51.703Z,8.38
2018-03-22T10:35:55.153Z,8.39
2018-03-22T10:36:58.442Z,8.40
2018-03-22T10:38:02.710Z,8.42
2018-03-22T10:39:06.059Z,8.42
2018-03-22T10:40:09.392Z,8.44
2018-03-22T10:41:12.880Z,8.45
2018-03-22T10:42:16.225Z,8.46
2018-03-22T10:43:19.648Z,8.47
2018-03-22T10:44:24.237Z,8.49
2018-03-22T10:45:27.601Z,8.50
2018-03-22T10:46:31.014Z,8.52
2018-03-22T10:47:34.385Z,8.54
2018-03-22T10:48:38.296Z,8.54
2018-03-22T10:49:41.686Z,8.57
2018-03-22T10:50:45.096Z,8.58
2018-03-22T10:51:48.410Z,8.59
2018-03-22T10:52:52.616Z,8.60
2018-03-22T10:53:56.049Z,8.60
2018-03-22T10:55:00.037Z,8.61
2018-03-22T10:56:03.361Z,8.61
2018-03-22T10:57:07.027Z,8.61
2018-03-22T10:58:10.433Z,8.62
2018-03-22T10:59:13.845Z,8.63
2018-03-22T11:00:22.904Z,8.63
2018-03-22T11:01:31.757Z,8.63
2018-03-22T11:02:40.750Z,8.63
2018-03-22T11:03:49.649Z,8.62
2018-03-22T11:04:52.977Z,8.63
2018-03-22T11:05:56.521Z,8.65
2018-03-22T11:06:59.840Z,8.67
2018-03-22T11:08:03.152Z,8.69
2018-03-22T11:09:06.684Z,8.70
2018-03-22T11:10:10.842Z,8.73
2018-03-22T11:11:14.176Z,8.74
2018-03-22T11:12:17.562Z,8.76
2018-03-22T11:13:20.917Z,8.78
2018-03-22T11:14:24.336Z,8.80
2018-03-22T11:15:27.676Z,8.83
2018-03-22T11:16:31.056Z,8.84
2018-03-22T11:17:34.523Z,8.86
2018-03-22T11:18:37.887Z,8.89
2018-03-22T11:19:42.487Z,8.92
2018-03-22T11:20:45.840Z,8.94
2018-03-22T11:21:49.168Z,8.97
2018-03-22T11:22:52.495Z,8.99
2018-03-22T11:23:55.900Z,9.03
2018-03-22T11:24:59.295Z,9.05
2018-03-22T11:26:02.739Z,9.08
2018-03-22T11:27:06.709Z,9.11
2018-03-22T11:28:10.024Z,9.13
2018-03-22T11:29:13.362Z,9.15
2018-03-22T11:30:16.731Z,9.17
2018-03-22T11:31:20.209Z,9.18
2018-03-22T11:32:23.588Z,9.19
2018-03-22T11:33:26.966Z,9.19
2018-03-22T11:34:30.289Z,9.19
2018-03-22T11:35:33.655Z,9.20
2018-03-22T11:36:37.005Z,9.19
2018-03-22T11:37:40.372Z,9.19
2018-03-22T11:38:43.779Z,9.20
2018-03-22T11:39:47.188Z,9.20
2018-03-22T11:40:51.006Z,9.21
2018-03-22T11:41:54.321Z,9.22
2018-03-22T11:42:58.067Z,9.22
2018-03-22T11:44:01.507Z,9.23
2018-03-22T11:45:06.289Z,9.23
2018-03-22T11:46:09.671Z,9.24
2018-03-22T11:47:13.101Z,9.24
2018-03-22T11:48:16.655Z,9.26
2018-03-22T11:49:20.038Z,9.28
2018-03-22T11:50:23.368Z,9.30
2018-03-22T11:51:26.769Z,9.31
2018-03-22T11:52:30.097Z,9.31
2018-03-22T11:53:33.477Z,9.33
2018-03-22T11:54:37.270Z,9.32
2018-03-22T11:55:40.660Z,9.32
2018-03-22T11:56:44.050Z,9.32
2018-03-22T11:57:47.720Z,9.31
2018-03-22T11:58:51.091Z,9.31
2018-03-22T11:59:54.556Z,9.31
2018-03-22T12:00:58.025Z,9.33
2018-03-22T12:02:01.571Z,9.36
2018-03-22T12:03:04.863Z,9.37
2018-03-22T12:04:08.461Z,9.40
2018-03-22T12:05:12.581Z,9.41
2018-03-22T12:06:15.977Z,9.42
2018-03-22T12:07:19.552Z,9.43
2018-03-22T12:08:23.598Z,9.45
2018-03-22T12:09:26.994Z,9.47
2018-03-22T12:10:30.375Z,9.48
2018-03-22T12:11:33.700Z,9.49
2018-03-22T12:12:37.581Z,9.51
2018-03-22T12:13:41.210Z,9.52
2018-03-22T12:14:45.592Z,9.53
2018-03-22T12:15:49.893Z,9.54
2018-03-22T12:16:53.204Z,9.55
2018-03-22T12:17:56.607Z,9.57
2018-03-22T12:19:00.038Z,9.57
2018-03-22T12:20:03.694Z,9.56
2018-03-22T12:22:14.623Z,9.57
2018-03-22T12:23:18.201Z,9.58
2018-03-22T12:24:21.890Z,9.59
2018-03-22T12:25:26.995Z,9.59
2018-03-22T12:26:30.605Z,9.60
2018-03-22T12:27:34.037Z,9.61
2018-03-22T12:28:37.494Z,9.62
2018-03-22T12:30:51.850Z,9.64
2018-03-22T12:31:55.278Z,9.65
2018-03-22T12:32:58.729Z,9.66
2018-03-22T12:34:03.321Z,9.67
2018-03-22T12:35:06.842Z,9.68
2018-03-22T12:36:10.356Z,9.70
2018-03-22T12:37:13.883Z,9.72
2018-03-22T12:38:18.490Z,9.73
2018-03-22T12:39:21.966Z,9.74
2018-03-22T12:40:26.350Z,9.77
2018-03-22T12:41:30.321Z,9.78
2018-03-22T12:42:33.833Z,9.80
2018-03-22T12:43:37.342Z,9.81
2018-03-22T12:44:41.188Z,9.82
2018-03-22T12:45:46.022Z,9.83
2018-03-22T12:46:50.125Z,9.84
2018-03-22T12:47:53.512Z,9.84
2018-03-22T12:48:57.118Z,9.85
2018-03-22T12:50:01.329Z,9.87
2018-03-22T12:51:04.779Z,9.88
2018-03-22T12:52:08.282Z,9.91
2018-03-22T12:53:11.664Z,9.91
2018-03-22T12:54:17.406Z,9.92
2018-03-22T12:55:20.972Z,9.92
2018-03-22T12:56:24.447Z,9.93
2018-03-22T12:57:27.946Z,9.96
2018-03-22T12:58:32.479Z,9.98
2018-03-22T12:59:36.626Z,9.99
2018-03-22T13:00:40.824Z,10.01
2018-03-22T13:01:44.228Z,10.03
2018-03-22T13:02:47.644Z,10.05
2018-03-22T13:03:51.027Z,10.07
2018-03-22T13:04:54.450Z,10.11
2018-03-22T13:05:57.895Z,10.14
2018-03-22T13:07:02.720Z,10.16
2018-03-22T13:08:06.228Z,10.19
2018-03-22T13:09:09.887Z,10.21
2018-03-22T13:10:13.320Z,10.23
2018-03-22T13:11:16.701Z,10.28
2018-03-22T13:12:20.885Z,10.32
2018-03-22T13:13:25.480Z,10.38
2018-03-22T13:14:29.024Z,10.43
2018-03-22T13:15:32.366Z,10.49
2018-03-22T13:16:36.586Z,10.55
2018-03-22T13:17:39.977Z,10.60
2018-03-22T13:18:43.704Z,10.64
2018-03-22T13:19:47.020Z,10.69
2018-03-22T13:20:50.752Z,10.73
2018-03-22T13:21:54.212Z,10.79
2018-03-22T13:22:57.665Z,10.85
2018-03-22T13:24:01.035Z,10.91
2018-03-22T13:25:04.876Z,10.96
2018-03-22T13:26:08.362Z,11.00
2018-03-22T13:27:12.467Z,11.02
2018-03-22T13:28:16.277Z,11.03
2018-03-22T13:29:19.847Z,11.04
2018-03-22T13:30:23.241Z,11.04
2018-03-22T13:31:26.593Z,11.04
2018-03-22T13:32:30.018Z,11.04
2018-03-22T13:33:33.402Z,11.03
2018-03-22T13:34:36.721Z,11.02
2018-03-22T13:35:40.196Z,11.02
2018-03-22T13:36:43.523Z,11.00
2018-03-22T13:37:47.060Z,10.99
2018-03-22T13:38:50.444Z,10.96
2018-03-22T13:39:53.843Z,10.94
2018-03-22T13:40:57.225Z,10.91
2018-03-22T13:42:00.649Z,10.88
2018-03-22T13:43:06.023Z,10.86
2018-03-22T13:44:10.670Z,10.81
2018-03-22T13:45:14.114Z,10.78
2018-03-22T13:46:17.517Z,10.75
2018-03-22T13:47:20.861Z,10.72
2018-03-22T13:48:25.013Z,10.69
2018-03-22T13:49:28.332Z,10.67
2018-03-22T13:50:32.695Z,10.65
2018-03-22T13:51:36.065Z,10.63
2018-03-22T13:52:39.642Z,10.61
2018-03-22T13:53:43.163Z,10.60
2018-03-22T13:54:47.580Z,10.58
2018-03-22T13:55:51.377Z,10.55
2018-03-22T13:56:54.752Z,10.54
2018-03-22T13:57:58.622Z,10.53
2018-03-22T13:59:02.036Z,10.52
2018-03-22T14:00:05.392Z,10.51
2018-03-22T14:01:08.770Z,10.51
2018-03-22T14:02:12.235Z,10.51
2018-03-22T14:03:15.640Z,10.50
2018-03-22T14:04:19.284Z,10.50
2018-03-22T14:05:22.876Z,10.49